createdAt,value
2024-03-14T00:02:04.551Z,69.07
2024-03-14T00:04:32.924Z,70.43
2024-03-14T00:07:00.165Z,65.15
2024-03-14T00:09:27.586Z,64.25
2024-03-14T00:11:54.860Z,64.40
2024-03-14T00:14:22.068Z,70.55
2024-03-14T00:16:52.345Z,74.75
2024-03-14T00:21:48.365Z,72.72
2024-03-14T00:24:16.176Z,74.65
2024-03-14T00:26:43.993Z,73.40
2024-03-14T00:29:11.663Z,72.68
2024-03-14T00:31:42.944Z,69.38
2024-03-14T00:34:11.475Z,72.22
2024-03-14T00:36:39.229Z,65.60
2024-03-14T00:39:07.976Z,68.18
2024-03-14T00:41:35.287Z,60.15
2024-03-14T00:44:04.435Z,68.53
2024-03-14T00:46:34.494Z,69.15
2024-03-14T00:49:01.918Z,62.95
2024-03-14T00:51:29.406Z,60.72
2024-03-14T00:53:57.319Z,65.53
2024-03-14T00:56:28.262Z,65.05
2024-03-14T00:58:57.568Z,67.57
2024-03-14T01:01:26.638Z,64.68
2024-03-14T01:03:56.972Z,65.50
2024-03-14T01:08:54.695Z,61.47
2024-03-14T01:11:22.089Z,77.18
2024-03-14T01:13:49.263Z,65.05
2024-03-14T01:16:16.501Z,69.38
2024-03-14T01:18:44.066Z,71.65
2024-03-14T01:21:11.350Z,72.32
2024-03-14T01:23:38.781Z,68.28
2024-03-14T01:26:05.920Z,65.40
2024-03-14T01:28:33.042Z,66.32
2024-03-14T01:31:00.712Z,68.53
2024-03-14T01:33:27.890Z,72.35
2024-03-14T01:36:00.293Z,64.60
2024-03-14T01:38:28.296Z,62.47
2024-03-14T01:40:55.522Z,64.88
2024-03-14T01:43:23.803Z,64.53
2024-03-14T01:45:50.980Z,67.55
2024-03-14T01:48:18.098Z,68.57
2024-03-14T01:50:45.466Z,68.47
2024-03-14T01:53:12.958Z,65.65
2024-03-14T01:55:40.184Z,69.28
2024-03-14T01:58:10.923Z,66.57
2024-03-14T02:00:51.795Z,68.53
2024-03-14T02:03:19.298Z,66.75
2024-03-14T02:05:57.804Z,67.72
2024-03-14T02:08:25.353Z,72.07
2024-03-14T02:10:52.641Z,69.80
2024-03-14T02:13:19.976Z,72.60
2024-03-14T02:15:47.091Z,69.78
2024-03-14T02:18:14.615Z,68.13
2024-03-14T02:20:41.910Z,70.28
2024-03-14T02:23:09.111Z,64.55
2024-03-14T02:25:37.012Z,64.78
2024-03-14T02:28:04.900Z,66.70
2024-03-14T02:30:32.111Z,72.13
2024-03-14T02:32:59.472Z,73.95
2024-03-14T02:35:26.531Z,67.60
2024-03-14T02:37:56.465Z,68.30
2024-03-14T02:40:24.104Z,63.63
2024-03-14T02:42:51.251Z,64.18
2024-03-14T02:45:21.822Z,68.45
2024-03-14T02:47:49.763Z,67.47
2024-03-14T02:50:17.935Z,65.72
2024-03-14T02:52:45.406Z,62.10
2024-03-14T02:55:12.673Z,63.75
2024-03-14T02:57:39.899Z,63.42
2024-03-14T03:00:15.770Z,68.35
2024-03-14T03:02:44.209Z,68.18
2024-03-14T03:05:11.727Z,67.82
2024-03-14T03:07:38.834Z,67.97
2024-03-14T03:10:07.653Z,67.88
2024-03-14T03:12:40.974Z,69.03
2024-03-14T03:15:11.616Z,68.40
2024-03-14T03:17:40.623Z,66.05
2024-03-14T03:20:12.761Z,71.38
2024-03-14T03:22:59.846Z,72.97
2024-03-14T03:25:27.206Z,70.53
2024-03-14T03:27:54.962Z,70.65
2024-03-14T03:30:22.218Z,67.93
2024-03-14T03:32:50.102Z,71.07
2024-03-14T03:35:24.878Z,74.68
2024-03-14T03:37:53.674Z,74.10
2024-03-14T03:40:25.581Z,72.90
2024-03-14T03:42:54.993Z,70.25
2024-03-14T03:45:22.782Z,69.13
2024-03-14T03:47:51.474Z,70.05
2024-03-14T03:50:19.384Z,72.35
2024-03-14T03:52:47.498Z,68.15
2024-03-14T03:55:20.462Z,73.93
2024-03-14T03:57:47.947Z,68.57
2024-03-14T04:00:38.023Z,70.18
2024-03-14T04:03:10.148Z,75.40
2024-03-14T04:05:44.060Z,70.10
2024-03-14T04:08:11.373Z,69.60
2024-03-14T04:10:38.790Z,70.10
2024-03-14T04:13:07.063Z,65.28
2024-03-14T04:15:35.739Z,70.65
2024-03-14T04:18:07.069Z,73.90
2024-03-14T04:20:39.475Z,69.45
2024-03-14T04:23:08.221Z,68.43
2024-03-14T04:25:35.471Z,68.90
2024-03-14T04:28:03.832Z,72.13
2024-03-14T04:30:31.420Z,71.28
2024-03-14T04:32:58.997Z,73.90
2024-03-14T04:35:26.906Z,74.05
2024-03-14T04:37:54.024Z,74.30
2024-03-14T04:40:21.811Z,69.55
2024-03-14T04:42:55.499Z,81.28
2024-03-14T04:45:23.231Z,74.70
2024-03-14T04:47:51.108Z,78.93
2024-03-14T04:50:21.153Z,72.25
2024-03-14T04:52:50.433Z,73.10
2024-03-14T04:55:19.053Z,73.28
2024-03-14T04:57:46.349Z,69.93
2024-03-14T05:00:20.552Z,76.18
2024-03-14T05:02:51.366Z,78.20
2024-03-14T05:05:19.545Z,72.53
2024-03-14T05:07:46.856Z,74.15
2024-03-14T05:10:21.157Z,76.22
2024-03-14T05:12:49.352Z,74.88
2024-03-14T05:15:17.064Z,68.38
2024-03-14T05:17:46.991Z,82.78
2024-03-14T05:20:15.833Z,64.70
2024-03-14T05:22:44.506Z,81.13
2024-03-14T05:25:14.059Z,73.95
2024-03-14T05:27:51.241Z,79.65
2024-03-14T05:30:25.524Z,77.45
2024-03-14T05:32:53.170Z,76.13
2024-03-14T05:35:20.369Z,72.45
2024-03-14T05:37:47.587Z,68.35
2024-03-14T05:40:14.935Z,73.40
2024-03-14T05:42:42.208Z,72.45
2024-03-14T05:45:10.727Z,76.57
2024-03-14T05:47:40.958Z,76.97
2024-03-14T05:50:11.568Z,74.25
2024-03-14T05:52:41.533Z,80.55
2024-03-14T05:55:12.052Z,81.72
2024-03-14T05:57:40.946Z,77.90
2024-03-14T06:00:11.393Z,73.43
2024-03-14T06:02:42.948Z,77.80
2024-03-14T06:05:10.114Z,72.28
2024-03-14T06:07:37.232Z,76.82
2024-03-14T06:10:05.063Z,73.32
2024-03-14T06:12:32.452Z,74.15
2024-03-14T06:15:00.001Z,70.30
2024-03-14T06:17:27.252Z,71.93
2024-03-14T06:19:54.461Z,72.72
2024-03-14T06:22:22.254Z,67.70
2024-03-14T06:24:49.409Z,73.82
2024-03-14T06:27:16.920Z,76.82
2024-03-14T06:29:44.035Z,79.50
2024-03-14T06:32:11.412Z,76.60
2024-03-14T06:34:38.810Z,73.90
2024-03-14T06:37:06.123Z,69.38
2024-03-14T06:39:36.706Z,69.20
2024-03-14T06:42:05.841Z,68.05
2024-03-14T06:44:33.607Z,65.78
2024-03-14T06:47:00.741Z,68.43
2024-03-14T06:49:28.057Z,63.65
2024-03-14T06:51:57.372Z,64.65
2024-03-14T06:54:25.754Z,66.03
2024-03-14T06:56:54.846Z,63.00
2024-03-14T06:59:22.017Z,65.00
2024-03-14T07:01:50.152Z,63.28
2024-03-14T07:04:17.811Z,60.05
2024-03-14T07:06:45.063Z,63.88
2024-03-14T07:09:19.305Z,60.95
2024-03-14T07:11:47.769Z,60.65
2024-03-14T07:14:17.720Z,64.07
2024-03-14T07:16:45.821Z,60.63
2024-03-14T07:19:13.397Z,60.40
2024-03-14T07:21:40.658Z,59.65
2024-03-14T07:24:07.847Z,57.22
2024-03-14T07:26:39.019Z,59.58
2024-03-14T07:29:07.002Z,57.08
2024-03-14T07:31:34.376Z,58.70
2024-03-14T07:34:01.767Z,56.63
2024-03-14T07:36:32.035Z,56.40
2024-03-14T07:38:59.980Z,54.28
2024-03-14T07:41:27.225Z,54.17
2024-03-14T07:46:28.734Z,52.65
2024-03-14T07:48:56.043Z,49.95
2024-03-14T07:51:23.582Z,49.10
2024-03-14T07:53:50.892Z,48.88
2024-03-14T07:56:18.843Z,46.75
2024-03-14T07:58:47.844Z,43.72
2024-03-14T08:01:18.225Z,44.33
2024-03-14T08:03:49.276Z,42.35
2024-03-14T08:06:18.154Z,42.30
2024-03-14T08:08:46.337Z,42.55
2024-03-14T08:11:14.428Z,43.28
2024-03-14T08:13:41.832Z,41.88
2024-03-14T08:16:23.181Z,42.55
2024-03-14T08:18:50.643Z,39.28
2024-03-14T08:21:18.056Z,39.20
2024-03-14T08:23:49.421Z,38.88
2024-03-14T08:26:18.995Z,36.83
2024-03-14T08:28:47.358Z,36.63
2024-03-14T08:31:18.658Z,36.10
2024-03-14T08:34:12.640Z,35.58
2024-03-14T08:36:42.150Z,36.45
2024-03-14T08:39:10.828Z,33.53
2024-03-14T08:41:38.075Z,34.38
2024-03-14T08:44:06.807Z,35.05
2024-03-14T08:46:34.175Z,34.42
2024-03-14T08:49:02.297Z,32.65
2024-03-14T08:51:29.702Z,31.20
2024-03-14T08:54:29.917Z,31.67
2024-03-14T08:57:00.217Z,34.90
2024-03-14T08:59:30.009Z,30.95
2024-03-14T09:01:57.473Z,32.55
2024-03-14T09:04:24.793Z,32.53
2024-03-14T09:06:52.029Z,32.50
2024-03-14T09:09:25.247Z,28.33
2024-03-14T09:11:52.880Z,26.58
2024-03-14T09:14:20.140Z,23.15
2024-03-14T09:16:48.557Z,26.02
2024-03-14T09:19:15.958Z,25.40
2024-03-14T09:21:43.155Z,24.60
2024-03-14T09:24:14.160Z,25.92
2024-03-14T09:26:43.742Z,24.67
2024-03-14T09:29:12.828Z,24.42
2024-03-14T09:31:45.213Z,23.45
2024-03-14T09:34:12.578Z,24.23
2024-03-14T09:36:39.843Z,23.05
2024-03-14T09:39:17.099Z,22.58
2024-03-14T09:41:44.339Z,23.98
2024-03-14T09:44:11.720Z,24.73
2024-03-14T09:46:43.185Z,21.05
2024-03-14T09:49:17.671Z,20.63
2024-03-14T09:51:45.169Z,21.15
2024-03-14T09:54:12.467Z,21.20
2024-03-14T09:56:39.924Z,20.02
2024-03-14T09:59:07.635Z,20.63
2024-03-14T10:01:36.301Z,20.23
2024-03-14T10:04:03.445Z,21.05
2024-03-14T10:06:30.642Z,17.65
2024-03-14T10:08:58.718Z,18.77
2024-03-14T10:11:26.019Z,20.77
2024-03-14T10:13:53.590Z,21.45
2024-03-14T10:16:23.893Z,20.73
2024-03-14T10:18:52.333Z,21.27
2024-03-14T10:21:20.268Z,17.90
2024-03-14T10:23:47.945Z,16.58
2024-03-14T10:26:15.370Z,14.85
2024-03-14T10:28:42.989Z,13.15
2024-03-14T10:31:10.844Z,12.57
2024-03-14T10:33:39.682Z,13.32
2024-03-14T10:36:13.664Z,14.45
2024-03-14T10:38:43.116Z,13.23
2024-03-14T10:41:13.657Z,13.77
2024-03-14T10:43:44.160Z,14.43
2024-03-14T10:46:15.174Z,14.57
2024-03-14T10:48:47.412Z,13.95
2024-03-14T10:51:15.934Z,13.52
2024-03-14T10:53:45.519Z,12.07
2024-03-14T10:56:17.540Z,13.20
2024-03-14T10:58:47.201Z,11.98
2024-03-14T11:01:15.472Z,11.80
2024-03-14T11:03:42.947Z,11.68
2024-03-14T11:06:16.069Z,13.63
2024-03-14T11:08:47.527Z,11.70
2024-03-14T11:11:19.812Z,12.15
2024-03-14T11:13:51.889Z,12.13
2024-03-14T11:16:20.141Z,12.10
2024-03-14T11:18:55.022Z,13.43
2024-03-14T11:21:27.660Z,12.15
2024-03-14T11:23:56.068Z,13.43
2024-03-14T11:26:26.055Z,13.02
2024-03-14T11:29:04.140Z,12.93
2024-03-14T11:31:43.758Z,13.95
2024-03-14T11:34:18.978Z,13.05
2024-03-14T11:36:50.286Z,12.00
2024-03-14T11:39:27.910Z,12.32
2024-03-14T11:42:22.745Z,12.90
2024-03-14T11:44:50.929Z,12.57
2024-03-14T11:47:42.696Z,12.43
2024-03-14T11:50:14.963Z,12.98
2024-03-14T11:52:43.453Z,12.98
2024-03-14T11:55:13.596Z,13.23
2024-03-14T11:57:46.620Z,13.07
2024-03-14T12:00:13.976Z,12.68
2024-03-14T12:02:41.716Z,12.90
2024-03-14T12:05:21.382Z,13.13
2024-03-14T12:07:48.696Z,12.83
2024-03-14T12:10:17.215Z,13.13
2024-03-14T12:12:44.946Z,14.85
2024-03-14T12:15:12.118Z,13.15
2024-03-14T12:17:39.304Z,14.57
2024-03-14T12:20:12.258Z,14.90
2024-03-14T12:22:44.340Z,14.20
2024-03-14T12:25:17.350Z,15.50
2024-03-14T12:27:45.227Z,14.48
2024-03-14T12:30:12.580Z,14.68
2024-03-14T12:32:42.509Z,14.15
2024-03-14T12:35:11.246Z,14.77
2024-03-14T12:37:41.054Z,15.23
2024-03-14T12:40:15.533Z,14.38
2024-03-14T12:42:47.638Z,14.80
2024-03-14T12:47:45.333Z,15.65
2024-03-14T12:50:22.462Z,15.05
2024-03-14T12:53:06.978Z,14.68
2024-03-14T12:55:35.291Z,15.05
2024-03-14T12:58:07.139Z,15.35
2024-03-14T13:00:36.272Z,14.85
2024-03-14T13:03:03.873Z,14.35
2024-03-14T13:05:31.119Z,15.60
2024-03-14T13:08:08.182Z,15.35
2024-03-14T13:10:39.611Z,14.73
2024-03-14T13:13:09.207Z,13.63
2024-03-14T13:15:39.020Z,14.32
2024-03-14T13:18:23.237Z,13.95
2024-03-14T13:20:57.294Z,13.68
2024-03-14T13:23:28.032Z,14.13
2024-03-14T13:25:55.802Z,13.90
2024-03-14T13:28:24.587Z,14.63
2024-03-14T13:30:51.988Z,14.93
2024-03-14T13:33:21.347Z,14.43
2024-03-14T13:35:48.900Z,13.40
2024-03-14T13:38:17.603Z,14.27
2024-03-14T13:40:46.828Z,12.98
2024-03-14T13:43:24.086Z,13.13
2024-03-14T13:45:52.845Z,12.75
2024-03-14T13:48:20.153Z,12.70
2024-03-14T13:50:47.346Z,13.23
2024-03-14T13:53:15.202Z,12.68
2024-03-14T13:55:44.935Z,12.65
2024-03-14T13:58:17.752Z,12.43
2024-03-14T14:00:48.343Z,11.65
2024-03-14T14:03:20.802Z,11.85
2024-03-14T14:05:49.823Z,11.90
2024-03-14T14:08:17.322Z,12.35
2024-03-14T14:10:48.761Z,12.65
2024-03-14T14:13:17.385Z,11.82
2024-03-14T14:15:46.538Z,12.65
2024-03-14T14:18:14.477Z,12.27
2024-03-14T14:20:42.334Z,12.18
2024-03-14T14:23:10.090Z,12.13
2024-03-14T14:25:37.600Z,12.10
2024-03-14T14:28:05.159Z,12.80
2024-03-14T14:30:34.247Z,14.27
2024-03-14T14:33:02.093Z,14.75
2024-03-14T14:35:29.234Z,13.68
2024-03-14T14:37:56.377Z,13.60
2024-03-14T14:40:23.496Z,15.70
2024-03-14T14:42:51.839Z,16.35
2024-03-14T14:45:21.450Z,16.95
2024-03-14T14:47:48.790Z,16.70
2024-03-14T14:50:15.939Z,16.15
2024-03-14T14:52:43.110Z,16.23
2024-03-14T14:55:13.958Z,15.70
2024-03-14T14:57:48.048Z,16.10
2024-03-14T15:00:17.021Z,16.75
2024-03-14T15:02:46.972Z,17.25
2024-03-14T15:05:14.585Z,16.90
2024-03-14T15:07:45.375Z,16.90
2024-03-14T15:10:13.754Z,17.17
2024-03-14T15:12:50.166Z,16.80
2024-03-14T15:15:25.210Z,17.25
2024-03-14T15:17:53.541Z,17.75
2024-03-14T15:20:24.557Z,18.05
2024-03-14T15:22:54.536Z,18.00
2024-03-14T15:25:23.447Z,17.25
2024-03-14T15:27:51.408Z,16.98
2024-03-14T15:30:20.003Z,17.50
2024-03-14T15:32:47.975Z,18.25
2024-03-14T15:35:16.789Z,18.88
2024-03-14T15:37:45.182Z,18.05
2024-03-14T15:40:15.722Z,18.17
2024-03-14T15:42:43.547Z,18.60
2024-03-14T15:45:18.542Z,17.42
2024-03-14T15:47:50.226Z,18.17
2024-03-14T15:50:19.559Z,19.15
2024-03-14T15:52:46.736Z,19.90
2024-03-14T15:55:17.029Z,19.13
2024-03-14T16:00:18.088Z,18.90
2024-03-14T16:02:46.353Z,18.52
2024-03-14T16:05:17.818Z,19.35
2024-03-14T16:07:46.989Z,18.63
2024-03-14T16:10:16.404Z,18.42
2024-03-14T16:12:44.155Z,18.93
2024-03-14T16:15:13.958Z,18.70
2024-03-14T16:17:42.244Z,18.05
2024-03-14T16:20:33.454Z,17.92
2024-03-14T16:23:05.549Z,17.77
2024-03-14T16:25:37.171Z,18.45
2024-03-14T16:28:05.150Z,18.48
2024-03-14T16:30:32.448Z,17.95
2024-03-14T16:32:59.785Z,17.45
2024-03-14T16:35:30.174Z,16.88
2024-03-14T16:38:00.872Z,17.02
2024-03-14T16:40:33.556Z,16.85
2024-03-14T16:43:01.592Z,16.63
2024-03-14T16:45:35.333Z,17.50
2024-03-14T16:48:03.820Z,16.17
2024-03-14T16:50:32.988Z,16.60
2024-03-14T16:53:00.601Z,16.45
2024-03-14T16:55:29.805Z,16.38
2024-03-14T16:57:59.026Z,16.52
2024-03-14T17:00:31.581Z,16.92
2024-03-14T17:03:00.049Z,16.77
2024-03-14T17:05:27.226Z,17.63
2024-03-14T17:07:54.342Z,17.80
2024-03-14T17:10:24.704Z,17.30
2024-03-14T17:12:52.465Z,17.48
2024-03-14T17:15:23.270Z,17.48
2024-03-14T17:17:51.102Z,17.63
2024-03-14T17:20:18.899Z,18.30
2024-03-14T17:22:47.781Z,17.60
2024-03-14T17:25:16.649Z,18.73
2024-03-14T17:27:45.643Z,18.30
2024-03-14T17:30:17.833Z,19.20
2024-03-14T17:32:45.708Z,18.10
2024-03-14T17:35:16.141Z,18.70
2024-03-14T17:37:43.800Z,19.30
2024-03-14T17:40:14.491Z,18.33
2024-03-14T17:42:44.279Z,18.48
2024-03-14T17:45:19.504Z,19.27
2024-03-14T17:47:51.698Z,19.17
2024-03-14T17:50:19.463Z,18.90
2024-03-14T17:52:46.944Z,17.88
2024-03-14T17:55:16.304Z,18.15
2024-03-14T17:57:46.152Z,18.00
2024-03-14T18:00:19.028Z,18.55
2024-03-14T18:02:49.510Z,17.90
2024-03-14T18:05:17.823Z,17.25
2024-03-14T18:07:45.571Z,18.08
2024-03-14T18:10:17.591Z,17.38
2024-03-14T18:12:47.152Z,17.15
2024-03-14T18:15:20.241Z,17.27
2024-03-14T18:17:48.761Z,17.30
2024-03-14T18:20:16.909Z,17.20
2024-03-14T18:22:46.237Z,17.50
2024-03-14T18:25:15.671Z,17.75
2024-03-14T18:27:44.482Z,18.10
2024-03-14T18:30:16.442Z,18.43
2024-03-14T18:32:45.016Z,17.85
2024-03-14T18:35:21.437Z,18.60
2024-03-14T18:37:51.541Z,18.75
2024-03-14T18:43:07.513Z,18.27
2024-03-14T18:45:35.431Z,17.40
2024-03-14T18:48:05.344Z,18.05
2024-03-14T18:50:32.812Z,18.25
2024-03-14T18:52:59.948Z,18.08
2024-03-14T18:55:29.613Z,17.67
2024-03-14T18:57:58.131Z,17.92
2024-03-14T19:00:27.359Z,17.02
2024-03-14T19:02:54.849Z,17.60
2024-03-14T19:05:28.901Z,16.70
2024-03-14T19:08:03.348Z,16.25
2024-03-14T19:10:33.003Z,16.55
2024-03-14T19:13:04.413Z,17.35
2024-03-14T19:15:33.452Z,18.15
2024-03-14T19:18:04.033Z,17.13
2024-03-14T19:22:58.282Z,17.05
2024-03-14T19:25:25.630Z,17.60
2024-03-14T19:27:55.151Z,18.13
2024-03-14T19:30:24.780Z,19.17
2024-03-14T19:32:52.824Z,21.23
2024-03-14T19:35:20.917Z,19.90
2024-03-14T19:37:49.982Z,18.88
2024-03-14T19:40:17.457Z,19.27
2024-03-14T19:42:44.663Z,19.27
2024-03-14T19:45:14.023Z,19.10
2024-03-14T19:47:46.509Z,19.65
2024-03-14T19:50:14.674Z,20.13
2024-03-14T19:52:45.480Z,19.83
2024-03-14T19:55:14.893Z,20.60
2024-03-14T19:57:42.202Z,18.80
2024-03-14T20:00:12.527Z,19.33
2024-03-14T20:02:41.538Z,18.92
2024-03-14T20:05:09.177Z,18.92
2024-03-14T20:07:37.297Z,18.35
2024-03-14T20:10:06.044Z,17.88
2024-03-14T20:12:34.692Z,18.38
2024-03-14T20:15:02.897Z,18.45
2024-03-14T20:17:30.188Z,18.58
2024-03-14T20:19:57.913Z,18.38
2024-03-14T20:22:26.231Z,18.15
2024-03-14T20:24:53.801Z,17.27
2024-03-14T20:27:21.053Z,17.75
2024-03-14T20:29:48.212Z,18.25
2024-03-14T20:32:16.370Z,18.70
2024-03-14T20:34:48.062Z,17.42
2024-03-14T20:37:16.031Z,18.58
2024-03-14T20:39:43.832Z,17.73
2024-03-14T20:42:15.943Z,18.17
2024-03-14T20:44:45.156Z,18.88
2024-03-14T20:47:14.253Z,18.67
2024-03-14T20:49:43.462Z,19.17
2024-03-14T20:52:15.297Z,18.33
2024-03-14T20:54:55.148Z,20.23
2024-03-14T20:57:23.824Z,18.52
2024-03-14T20:59:52.225Z,20.10
2024-03-14T21:02:25.964Z,19.20
2024-03-14T21:04:53.526Z,19.20
2024-03-14T21:07:20.772Z,19.83
2024-03-14T21:09:52.739Z,21.33
2024-03-14T21:12:24.414Z,22.42
2024-03-14T21:14:52.714Z,23.55
2024-03-14T21:17:20.593Z,25.58
2024-03-14T21:19:48.570Z,23.55
2024-03-14T21:22:15.816Z,24.05
2024-03-14T21:24:43.983Z,26.00
2024-03-14T21:27:14.634Z,24.70
2024-03-14T21:29:41.725Z,24.88
2024-03-14T21:32:08.979Z,25.17
2024-03-14T21:34:36.924Z,27.35
2024-03-14T21:37:08.417Z,26.70
2024-03-14T21:39:39.460Z,28.40
2024-03-14T21:42:11.509Z,29.38
2024-03-14T21:44:47.709Z,30.88
2024-03-14T21:47:14.822Z,31.48
2024-03-14T21:49:41.939Z,31.27
2024-03-14T21:52:13.651Z,31.83
2024-03-14T21:54:42.161Z,30.15
2024-03-14T21:57:09.636Z,31.98
2024-03-14T21:59:37.670Z,31.85
2024-03-14T22:02:05.122Z,33.30
2024-03-14T22:04:32.284Z,31.67
2024-03-14T22:06:59.425Z,30.50
2024-03-14T22:09:26.851Z,31.63
2024-03-14T22:11:55.030Z,32.05
2024-03-14T22:14:23.443Z,30.98
2024-03-14T22:16:50.798Z,31.33
2024-03-14T22:19:18.066Z,30.05
2024-03-14T22:21:45.300Z,31.63
2024-03-14T22:24:12.492Z,31.05
2024-03-14T22:26:40.009Z,29.70
2024-03-14T22:29:08.979Z,30.42
2024-03-14T22:31:39.473Z,30.98
2024-03-14T22:34:07.410Z,29.20
2024-03-14T22:36:40.498Z,29.45
2024-03-14T22:39:11.200Z,30.08
2024-03-14T22:41:38.453Z,28.90
2024-03-14T22:44:08.250Z,28.70
2024-03-14T22:46:35.566Z,28.67
2024-03-14T22:49:03.122Z,29.58
2024-03-14T22:51:30.383Z,27.45
2024-03-14T22:53:58.483Z,27.98
2024-03-14T22:56:26.055Z,28.25
2024-03-14T22:58:53.264Z,29.27
2024-03-14T23:01:20.990Z,28.38
2024-03-14T23:03:49.659Z,27.42
2024-03-14T23:06:18.660Z,27.67
2024-03-14T23:08:46.696Z,27.27
2024-03-14T23:11:14.300Z,27.92
2024-03-14T23:13:41.451Z,28.27
2024-03-14T23:16:09.106Z,29.10
2024-03-14T23:18:36.795Z,28.85
2024-03-14T23:21:04.219Z,27.88
2024-03-14T23:23:31.513Z,29.17
2024-03-14T23:25:58.595Z,29.17
2024-03-14T23:28:26.203Z,30.52
2024-03-14T23:30:53.631Z,30.42
2024-03-14T23:33:20.964Z,29.80
2024-03-14T23:35:48.240Z,28.20
2024-03-14T23:38:15.395Z,29.23
2024-03-14T23:40:42.626Z,27.40
2024-03-14T23:43:10.252Z,30.40
2024-03-14T23:45:37.583Z,31.02
2024-03-14T23:48:05.525Z,28.77
2024-03-14T23:50:32.661Z,31.90
2024-03-14T23:53:00.261Z,32.28
2024-03-14T23:55:27.492Z,30.95
2024-03-14T23:57:57.225Z,32.00
